PWSweather.com
Personal Weather Stations
Station Observations
ATLSISEO
Iseo, IseoIT 25049

IseoIseoIT 25049

Lat: 45.659737, Lon: 10.03512

Elevation: 15

Station Type: PCE FW20

Latest ConditionsUpdated 9:13:49 PM GMT+01:01 Tuesday, May 21, 2019
Currently Today's Max Today's Min Today's Average
Temperature 60.6°F15.9°C 71.8°F22.1°C 55.9°F13.3°C 61.6°F16.4°C
Dew Point 57.4°F14.1°C 58.5°F14.7°C 51.4°F10.8°C 55.2°F12.9°C
Winds 0.7 mph W1.1 kmh W 8.3 mph -13.4 kmh - - 2.4 mph 3.9 kmh
Wind Gusts 1.6 mph2.6 kmh 11.4 mph18.3 kmh - -
Humidity 89% 95% 58% 81%
Pressure 29.92 in1013.2 mb 29.92 in1013.2 mb 29.75 in1007.5 mb -
Precipitation - 0.13 in3.3 mm - -
Hour Temp Dew Point Humidity Winds Wind Gusts Pressure Precip Precip Rate Daily Precip Total
09:13 PM 60.6°F15.9°C 57.4°F14.1°C 89% 0.7 mph W1.1 kmh W 1.6 mph2.6 kmh 29.92 in1013.2 mb 0.00 in0.0 mm 0.00 in0.0 mm 0.13 in3.3 mm
09:08 PM 60.6°F15.9°C 57.4°F14.1°C 89% 2.2 mph SW3.5 kmh SW 3.1 mph5.0 kmh 29.91 in1012.9 mb 0.00 in0.0 mm 0.00 in0.0 mm 0.13 in3.3 mm
09:03 PM 60.4°F15.8°C 57.5°F14.2°C 90% 2.2 mph SW3.5 kmh SW 3.8 mph6.1 kmh 29.91 in1012.9 mb 0.00 in0.0 mm 0.00 in0.0 mm 0.13 in3.3 mm
08:58 PM 60.4°F15.8°C 57.5°F14.2°C 90% 1.6 mph SW2.6 kmh SW 3.1 mph5.0 kmh 29.90 in1012.5 mb 0.00 in0.0 mm 0.00 in0.0 mm 0.13 in3.3 mm
08:53 PM 60.4°F15.8°C 57.5°F14.2°C 90% 3.1 mph WSW5.0 kmh WSW 3.8 mph6.1 kmh 29.91 in1012.9 mb 0.00 in0.0 mm 0.00 in0.0 mm 0.13 in3.3 mm
08:48 PM 60.4°F15.8°C 57.5°F14.2°C 90% 4.5 mph NW7.2 kmh NW 6.0 mph9.7 kmh 29.91 in1012.9 mb 0.00 in0.0 mm 0.00 in0.0 mm 0.13 in3.3 mm
08:43 PM 60.4°F15.8°C 57.5°F14.2°C 90% 3.1 mph W5.0 kmh W 4.5 mph7.2 kmh 29.90 in1012.5 mb 0.00 in0.0 mm 0.00 in0.0 mm 0.13 in3.3 mm
08:38 PM 60.4°F15.8°C 57.5°F14.2°C 90% 3.8 mph W6.1 kmh W 6.0 mph9.7 kmh 29.90 in1012.5 mb 0.00 in0.0 mm 0.00 in0.0 mm 0.13 in3.3 mm
08:33 PM 60.3°F15.7°C 57.3°F14.1°C 90% 3.8 mph NW6.1 kmh NW 6.0 mph9.7 kmh 29.90 in1012.5 mb 0.00 in0.0 mm 0.00 in0.0 mm 0.13 in3.3 mm
08:28 PM 60.1°F15.6°C 57.1°F13.9°C 90% 2.2 mph NW3.5 kmh NW 4.5 mph7.2 kmh 29.89 in1012.2 mb 0.00 in0.0 mm 0.00 in0.0 mm 0.13 in3.3 mm
08:23 PM 59.9°F15.5°C 57.0°F13.9°C 90% 4.5 mph WSW7.2 kmh WSW 6.0 mph9.7 kmh 29.89 in1012.2 mb 0.00 in0.0 mm 0.00 in0.0 mm 0.13 in3.3 mm
08:18 PM 59.9°F15.5°C 57.0°F13.9°C 90% 3.8 mph SW6.1 kmh SW 5.4 mph8.7 kmh 29.89 in1012.2 mb 0.00 in0.0 mm 0.00 in0.0 mm 0.13 in3.3 mm
08:13 PM 59.9°F15.5°C 57.0°F13.9°C 90% 3.8 mph W6.1 kmh W 4.5 mph7.2 kmh 29.88 in1011.9 mb 0.00 in0.0 mm 0.00 in0.0 mm 0.13 in3.3 mm
08:08 PM 59.9°F15.5°C 56.7°F13.7°C 89% 2.2 mph NW3.5 kmh NW 3.8 mph6.1 kmh 29.88 in1011.9 mb 0.00 in0.0 mm 0.00 in0.0 mm 0.13 in3.3 mm
08:03 PM 60.1°F15.6°C 56.5°F13.6°C 88% 3.1 mph W5.0 kmh W 3.8 mph6.1 kmh 29.88 in1011.9 mb 0.00 in0.0 mm 0.00 in0.0 mm 0.13 in3.3 mm
07:58 PM 59.9°F15.5°C 56.3°F13.5°C 88% 2.2 mph WSW3.5 kmh WSW 3.1 mph5.0 kmh 29.87 in1011.5 mb 0.00 in0.0 mm 0.00 in0.0 mm 0.13 in3.3 mm
07:53 PM 60.1°F15.6°C 56.2°F13.4°C 87% Calm Calm 0.7 mph1.1 kmh 29.87 in1011.5 mb 0.00 in0.0 mm 0.00 in0.0 mm 0.13 in3.3 mm
07:48 PM 60.1°F15.6°C 56.2°F13.4°C 87% 2.2 mph SW3.5 kmh SW 3.1 mph5.0 kmh 29.87 in1011.5 mb 0.00 in0.0 mm 0.00 in0.0 mm 0.13 in3.3 mm
07:43 PM 60.3°F15.7°C 56.4°F13.6°C 87% Calm Calm -- 29.86 in1011.2 mb 0.00 in0.0 mm 0.00 in0.0 mm 0.13 in3.3 mm
07:38 PM 60.4°F15.8°C 56.6°F13.7°C 87% 1.6 mph NW2.6 kmh NW 2.2 mph3.5 kmh 29.85 in1010.8 mb 0.00 in0.0 mm 0.00 in0.0 mm 0.13 in3.3 mm
07:33 PM 60.3°F15.7°C 56.4°F13.6°C 87% 1.6 mph NW2.6 kmh NW 2.2 mph3.5 kmh 29.85 in1010.8 mb 0.00 in0.0 mm 0.00 in0.0 mm 0.13 in3.3 mm
07:27 PM 60.3°F15.7°C 56.4°F13.6°C 87% 0.7 mph NW1.1 kmh NW 1.6 mph2.6 kmh 29.85 in1010.8 mb 0.00 in0.0 mm 0.00 in0.0 mm 0.13 in3.3 mm
07:22 PM 60.4°F15.8°C 56.2°F13.4°C 86% Calm Calm 1.6 mph2.6 kmh 29.84 in1010.5 mb 0.00 in0.0 mm 0.00 in0.0 mm 0.13 in3.3 mm
07:17 PM 60.6°F15.9°C 56.4°F13.6°C 86% 0.7 mph SE1.1 kmh SE 1.6 mph2.6 kmh 29.84 in1010.5 mb 0.00 in0.0 mm 0.00 in0.0 mm 0.13 in3.3 mm
07:12 PM 60.6°F15.9°C 56.7°F13.7°C 87% 2.2 mph SW3.5 kmh SW 3.8 mph6.1 kmh 29.83 in1010.2 mb 0.00 in0.0 mm 0.00 in0.0 mm 0.13 in3.3 mm
07:07 PM 60.8°F16.0°C 56.3°F13.5°C 85% 2.2 mph W3.5 kmh W 3.8 mph6.1 kmh 29.84 in1010.5 mb 0.00 in0.0 mm 0.00 in0.0 mm 0.13 in3.3 mm
07:02 PM 61.0°F16.1°C 56.4°F13.6°C 85% 1.6 mph NW2.6 kmh NW 2.2 mph3.5 kmh 29.83 in1010.2 mb 0.00 in0.0 mm 0.00 in0.0 mm 0.13 in3.3 mm
06:57 PM 60.8°F16.0°C 56.3°F13.5°C 85% 0.7 mph SE1.1 kmh SE 1.6 mph2.6 kmh 29.83 in1010.2 mb 0.00 in0.0 mm 0.00 in0.0 mm 0.13 in3.3 mm
06:52 PM 60.3°F15.7°C 55.7°F13.2°C 85% 3.1 mph SE5.0 kmh SE 4.5 mph7.2 kmh 29.82 in1009.8 mb 0.00 in0.0 mm 0.00 in0.0 mm 0.13 in3.3 mm
06:47 PM 60.1°F15.6°C 55.6°F13.1°C 85% 0.7 mph S1.1 kmh S 2.2 mph3.5 kmh 29.83 in1010.2 mb 0.00 in0.0 mm 0.00 in0.0 mm 0.13 in3.3 mm
06:42 PM 60.3°F15.7°C 55.4°F13.0°C 84% 0.7 mph SW1.1 kmh SW 1.6 mph2.6 kmh 29.82 in1009.8 mb 0.00 in0.0 mm 0.00 in0.0 mm 0.13 in3.3 mm
06:37 PM 60.4°F15.8°C 54.9°F12.7°C 82% 1.6 mph S2.6 kmh S 2.2 mph3.5 kmh 29.81 in1009.5 mb 0.00 in0.0 mm 0.00 in0.0 mm 0.13 in3.3 mm
06:32 PM 60.3°F15.7°C 54.1°F12.3°C 80% 0.7 mph S1.1 kmh S 1.6 mph2.6 kmh 29.81 in1009.5 mb 0.00 in0.0 mm 0.00 in0.0 mm 0.13 in3.3 mm
06:27 PM 60.3°F15.7°C 54.1°F12.3°C 80% Calm Calm -- 29.81 in1009.5 mb 0.01 in0.3 mm 0.00 in0.0 mm 0.13 in3.3 mm
06:22 PM 60.6°F15.9°C 54.1°F12.3°C 79% 0.7 mph W1.1 kmh W 1.6 mph2.6 kmh 29.81 in1009.5 mb 0.01 in0.3 mm 0.00 in0.0 mm 0.13 in3.3 mm
06:17 PM 61.2°F16.2°C 53.9°F12.2°C 77% 2.2 mph WSW3.5 kmh WSW 3.8 mph6.1 kmh 29.82 in1009.8 mb 0.01 in0.3 mm 0.00 in0.0 mm 0.13 in3.3 mm
06:12 PM 61.2°F16.2°C 53.5°F11.9°C 76% 1.6 mph SW2.6 kmh SW 2.2 mph3.5 kmh 29.81 in1009.5 mb 0.01 in0.3 mm 0.00 in0.0 mm 0.13 in3.3 mm
06:07 PM 61.3°F16.3°C 53.0°F11.7°C 74% Calm Calm -- 29.81 in1009.5 mb 0.04 in1.0 mm 0.00 in0.0 mm 0.13 in3.3 mm
06:02 PM 61.5°F16.4°C 52.8°F11.6°C 73% 0.7 mph S1.1 kmh S 1.6 mph2.6 kmh 29.81 in1009.5 mb 0.04 in1.0 mm 0.00 in0.0 mm 0.13 in3.3 mm
05:57 PM 61.5°F16.4°C 52.4°F11.3°C 72% 1.6 mph SW2.6 kmh SW 3.1 mph5.0 kmh 29.81 in1009.5 mb 0.05 in1.3 mm 0.00 in0.0 mm 0.13 in3.3 mm
05:52 PM 62.1°F16.7°C 52.2°F11.2°C 70% 5.4 mph NW8.7 kmh NW 8.3 mph13.4 kmh 29.81 in1009.5 mb 0.07 in1.8 mm 0.00 in0.0 mm 0.13 in3.3 mm
05:47 PM 62.4°F16.9°C 52.5°F11.4°C 70% 6.0 mph SW9.7 kmh SW 7.6 mph12.2 kmh 29.81 in1009.5 mb 0.09 in2.3 mm 0.00 in0.0 mm 0.13 in3.3 mm
05:42 PM 62.2°F16.8°C 52.3°F11.3°C 70% 3.1 mph 5.0 kmh 3.8 mph6.1 kmh 29.81 in1009.5 mb 0.09 in2.3 mm 0.00 in0.0 mm 0.13 in3.3 mm
05:37 PM 61.9°F16.6°C 52.4°F11.3°C 71% 2.2 mph SE3.5 kmh SE 3.1 mph5.0 kmh 29.82 in1009.8 mb 0.11 in2.8 mm 0.00 in0.0 mm 0.13 in3.3 mm
05:32 PM 62.1°F16.7°C 51.4°F10.8°C 68% 3.8 mph WNW6.1 kmh WNW 5.4 mph8.7 kmh 29.81 in1009.5 mb 0.11 in2.8 mm 0.14 in3.6 mm 0.13 in3.3 mm
05:27 PM 61.7°F16.5°C 52.6°F11.4°C 72% 2.2 mph 3.5 kmh 3.1 mph5.0 kmh 29.81 in1009.5 mb 0.09 in2.3 mm 0.00 in0.0 mm 0.12 in3.0 mm
05:22 PM 62.1°F16.7°C 53.7°F12.1°C 74% 1.6 mph SW2.6 kmh SW 3.1 mph5.0 kmh 29.80 in1009.1 mb 0.09 in2.3 mm 0.00 in0.0 mm 0.12 in3.0 mm
05:17 PM 62.4°F16.9°C 54.0°F12.2°C 74% 1.6 mph W2.6 kmh W 2.2 mph3.5 kmh 29.80 in1009.1 mb 0.09 in2.3 mm 0.14 in3.6 mm 0.12 in3.0 mm
05:12 PM 63.3°F17.4°C 56.7°F13.7°C 79% 3.8 mph SE6.1 kmh SE 6.0 mph9.7 kmh 29.78 in1008.5 mb 0.08 in2.0 mm 0.14 in3.6 mm 0.11 in2.8 mm
05:07 PM 63.3°F17.4°C 54.9°F12.7°C 74% 6.9 mph SE11.1 kmh SE 8.3 mph13.4 kmh 29.79 in1008.8 mb 0.07 in1.8 mm 0.00 in0.0 mm 0.09 in2.3 mm
05:02 PM 64.0°F17.8°C 54.4°F12.4°C 71% 1.6 mph ESE2.6 kmh ESE 3.1 mph5.0 kmh 29.79 in1008.8 mb 0.07 in1.8 mm 0.03 in0.8 mm 0.09 in2.3 mm
04:57 PM 65.1°F18.4°C 54.3°F12.4°C 68% 4.5 mph NW7.2 kmh NW 11.4 mph18.3 kmh 29.80 in1009.1 mb 0.05 in1.3 mm 0.14 in3.6 mm 0.07 in1.8 mm
04:52 PM 66.6°F19.2°C 58.0°F14.4°C 74% 3.1 mph S5.0 kmh S 3.8 mph6.1 kmh 29.79 in1008.8 mb 0.04 in1.0 mm 0.28 in7.1 mm 0.06 in1.5 mm
04:47 PM 67.5°F19.7°C 58.5°F14.7°C 73% 3.8 mph W6.1 kmh W 5.4 mph8.7 kmh 29.79 in1008.8 mb 0.01 in0.3 mm 0.00 in0.0 mm 0.04 in1.0 mm
04:42 PM 68.2°F20.1°C 58.0°F14.4°C 70% 3.8 mph W6.1 kmh W 5.4 mph8.7 kmh 29.78 in1008.5 mb 0.01 in0.3 mm 0.07 in1.8 mm 0.04 in1.0 mm
04:32 PM 69.8°F21.0°C 56.2°F13.4°C 62% 1.6 mph W2.6 kmh W 3.1 mph5.0 kmh 29.78 in1008.5 mb 0.00 in0.0 mm 0.00 in0.0 mm 0.02 in0.5 mm
04:27 PM 70.5°F21.4°C 56.0°F13.3°C 60% 2.2 mph W3.5 kmh W 3.1 mph5.0 kmh 29.78 in1008.5 mb 0.00 in0.0 mm 0.00 in0.0 mm 0.02 in0.5 mm
04:22 PM 71.1°F21.7°C 56.5°F13.6°C 60% 2.2 mph NW3.5 kmh NW 4.5 mph7.2 kmh 29.78 in1008.5 mb 0.00 in0.0 mm 0.00 in0.0 mm 0.02 in0.5 mm
04:17 PM 71.2°F21.8°C 56.2°F13.4°C 59% Calm Calm -- 29.78 in1008.5 mb 0.00 in0.0 mm 0.00 in0.0 mm 0.02 in0.5 mm
04:12 PM 71.2°F21.8°C 56.6°F13.7°C 60% 0.7 mph SW1.1 kmh SW 1.6 mph2.6 kmh 29.78 in1008.5 mb 0.00 in0.0 mm 0.00 in0.0 mm 0.02 in0.5 mm
04:07 PM 71.2°F21.8°C 56.2°F13.4°C 59% 3.8 mph S6.1 kmh S 5.4 mph8.7 kmh 29.78 in1008.5 mb 0.00 in0.0 mm 0.00 in0.0 mm 0.02 in0.5 mm
04:02 PM 71.4°F21.9°C 56.8°F13.8°C 60% 4.5 mph S7.2 kmh S 5.4 mph8.7 kmh 29.78 in1008.5 mb 0.00 in0.0 mm 0.00 in0.0 mm 0.02 in0.5 mm
03:57 PM 71.6°F22.0°C 56.0°F13.3°C 58% 3.8 mph S6.1 kmh S 5.4 mph8.7 kmh 29.78 in1008.5 mb 0.00 in0.0 mm 0.00 in0.0 mm 0.02 in0.5 mm
03:52 PM 71.8°F22.1°C 56.2°F13.4°C 58% 1.6 mph S2.6 kmh S 3.8 mph6.1 kmh 29.78 in1008.5 mb 0.00 in0.0 mm 0.00 in0.0 mm 0.02 in0.5 mm
03:47 PM 71.2°F21.8°C 56.6°F13.7°C 60% 1.6 mph S2.6 kmh S 3.1 mph5.0 kmh 29.78 in1008.5 mb 0.00 in0.0 mm 0.00 in0.0 mm 0.02 in0.5 mm
03:42 PM 71.1°F21.7°C 56.9°F13.8°C 61% 2.2 mph SE3.5 kmh SE 3.1 mph5.0 kmh 29.78 in1008.5 mb 0.00 in0.0 mm 0.00 in0.0 mm 0.02 in0.5 mm
03:37 PM 70.7°F21.5°C 56.1°F13.4°C 60% 4.5 mph SE7.2 kmh SE 6.0 mph9.7 kmh 29.78 in1008.5 mb 0.00 in0.0 mm 0.00 in0.0 mm 0.02 in0.5 mm
03:32 PM 70.9°F21.6°C 56.3°F13.5°C 60% 3.1 mph S5.0 kmh S 6.9 mph11.1 kmh 29.78 in1008.5 mb 0.00 in0.0 mm 0.00 in0.0 mm 0.02 in0.5 mm
03:27 PM 71.1°F21.7°C 56.0°F13.3°C 59% 2.2 mph SSW3.5 kmh SSW 3.8 mph6.1 kmh 29.78 in1008.5 mb 0.00 in0.0 mm 0.00 in0.0 mm 0.02 in0.5 mm
03:22 PM 71.6°F22.0°C 57.0°F13.9°C 60% 3.8 mph SE6.1 kmh SE 4.5 mph7.2 kmh 29.78 in1008.5 mb 0.00 in0.0 mm 0.00 in0.0 mm 0.02 in0.5 mm
03:17 PM 71.8°F22.1°C 56.7°F13.7°C 59% 3.8 mph S6.1 kmh S 4.5 mph7.2 kmh 29.78 in1008.5 mb 0.00 in0.0 mm 0.00 in0.0 mm 0.02 in0.5 mm
03:12 PM 71.4°F21.9°C 56.8°F13.8°C 60% 1.6 mph S2.6 kmh S 3.1 mph5.0 kmh 29.78 in1008.5 mb 0.00 in0.0 mm 0.00 in0.0 mm 0.02 in0.5 mm
03:07 PM 71.4°F21.9°C 56.8°F13.8°C 60% 1.6 mph S2.6 kmh S 3.8 mph6.1 kmh 29.78 in1008.5 mb 0.00 in0.0 mm 0.00 in0.0 mm 0.02 in0.5 mm
03:02 PM 71.4°F21.9°C 57.3°F14.1°C 61% 1.6 mph SE2.6 kmh SE 2.2 mph3.5 kmh 29.78 in1008.5 mb 0.00 in0.0 mm 0.00 in0.0 mm 0.02 in0.5 mm
02:57 PM 71.4°F21.9°C 56.8°F13.8°C 60% 0.7 mph SW1.1 kmh SW 1.6 mph2.6 kmh 29.78 in1008.5 mb 0.00 in0.0 mm 0.00 in0.0 mm 0.02 in0.5 mm
02:52 PM 71.4°F21.9°C 56.8°F13.8°C 60% 2.2 mph S3.5 kmh S 3.1 mph5.0 kmh 29.78 in1008.5 mb 0.00 in0.0 mm 0.00 in0.0 mm 0.02 in0.5 mm
02:47 PM 71.2°F21.8°C 57.1°F13.9°C 61% 0.7 mph SW1.1 kmh SW 1.6 mph2.6 kmh 29.78 in1008.5 mb 0.00 in0.0 mm 0.00 in0.0 mm 0.02 in0.5 mm
02:42 PM 70.7°F21.5°C 56.6°F13.7°C 61% Calm Calm 1.6 mph2.6 kmh 29.78 in1008.5 mb 0.00 in0.0 mm 0.00 in0.0 mm 0.02 in0.5 mm
02:37 PM 70.2°F21.2°C 56.1°F13.4°C 61% Calm Calm 0.7 mph1.1 kmh 29.78 in1008.5 mb 0.00 in0.0 mm 0.00 in0.0 mm 0.02 in0.5 mm
02:32 PM 70.2°F21.2°C 55.6°F13.1°C 60% 2.2 mph 3.5 kmh 3.1 mph5.0 kmh 29.78 in1008.5 mb 0.00 in0.0 mm 0.00 in0.0 mm 0.02 in0.5 mm
02:27 PM 70.3°F21.3°C 55.3°F12.9°C 59% 2.2 mph NW3.5 kmh NW 3.1 mph5.0 kmh 29.79 in1008.8 mb 0.00 in0.0 mm 0.00 in0.0 mm 0.02 in0.5 mm
02:22 PM 70.7°F21.5°C 55.7°F13.2°C 59% 2.2 mph 3.5 kmh 3.1 mph5.0 kmh 29.78 in1008.5 mb 0.00 in0.0 mm 0.00 in0.0 mm 0.02 in0.5 mm
02:17 PM 70.7°F21.5°C 56.6°F13.7°C 61% 1.6 mph NW2.6 kmh NW 2.2 mph3.5 kmh 29.78 in1008.5 mb 0.00 in0.0 mm 0.00 in0.0 mm 0.02 in0.5 mm
02:12 PM 70.0°F21.1°C 55.9°F13.3°C 61% 2.2 mph NW3.5 kmh NW 3.1 mph5.0 kmh 29.78 in1008.5 mb 0.00 in0.0 mm 0.00 in0.0 mm 0.02 in0.5 mm
02:07 PM 69.8°F21.0°C 55.3°F12.9°C 60% 1.6 mph NNW2.6 kmh NNW 3.1 mph5.0 kmh 29.79 in1008.8 mb 0.00 in0.0 mm 0.00 in0.0 mm 0.02 in0.5 mm
02:02 PM 70.5°F21.4°C 55.5°F13.1°C 59% 3.8 mph NW6.1 kmh NW 4.5 mph7.2 kmh 29.78 in1008.5 mb 0.00 in0.0 mm 0.00 in0.0 mm 0.02 in0.5 mm
01:57 PM 70.9°F21.6°C 56.3°F13.5°C 60% 2.2 mph 3.5 kmh 3.8 mph6.1 kmh 29.78 in1008.5 mb 0.00 in0.0 mm 0.00 in0.0 mm 0.02 in0.5 mm
01:52 PM 70.0°F21.1°C 55.9°F13.3°C 61% Calm Calm 1.6 mph2.6 kmh 29.78 in1008.5 mb 0.00 in0.0 mm 0.00 in0.0 mm 0.02 in0.5 mm
01:47 PM 70.0°F21.1°C 55.9°F13.3°C 61% 1.6 mph 2.6 kmh 2.2 mph3.5 kmh 29.78 in1008.5 mb 0.00 in0.0 mm 0.00 in0.0 mm 0.02 in0.5 mm
01:42 PM 69.4°F20.8°C 55.4°F13.0°C 61% Calm Calm 0.7 mph1.1 kmh 29.78 in1008.5 mb 0.00 in0.0 mm 0.00 in0.0 mm 0.02 in0.5 mm
01:37 PM 70.2°F21.2°C 55.6°F13.1°C 60% 2.2 mph NNW3.5 kmh NNW 3.1 mph5.0 kmh 29.78 in1008.5 mb 0.00 in0.0 mm 0.00 in0.0 mm 0.02 in0.5 mm
01:32 PM 70.2°F21.2°C 56.5°F13.6°C 62% 2.2 mph S3.5 kmh S 3.8 mph6.1 kmh 29.78 in1008.5 mb 0.00 in0.0 mm 0.00 in0.0 mm 0.02 in0.5 mm
01:27 PM 69.8°F21.0°C 56.2°F13.4°C 62% 0.7 mph S1.1 kmh S 2.2 mph3.5 kmh 29.78 in1008.5 mb 0.00 in0.0 mm 0.00 in0.0 mm 0.02 in0.5 mm
01:17 PM 70.7°F21.5°C 56.1°F13.4°C 60% 2.2 mph 3.5 kmh 3.1 mph5.0 kmh 29.78 in1008.5 mb 0.00 in0.0 mm 0.00 in0.0 mm 0.02 in0.5 mm
01:12 PM 70.5°F21.4°C 57.3°F14.1°C 63% 1.6 mph W2.6 kmh W 2.2 mph3.5 kmh 29.77 in1008.1 mb 0.00 in0.0 mm 0.00 in0.0 mm 0.02 in0.5 mm
01:07 PM 68.9°F20.5°C 55.3°F12.9°C 62% 0.7 mph NE1.1 kmh NE 1.6 mph2.6 kmh 29.78 in1008.5 mb 0.00 in0.0 mm 0.00 in0.0 mm 0.02 in0.5 mm
01:02 PM 68.9°F20.5°C 55.3°F12.9°C 62% 0.7 mph NE1.1 kmh NE 1.6 mph2.6 kmh 29.78 in1008.5 mb 0.00 in0.0 mm 0.00 in0.0 mm 0.02 in0.5 mm
12:57 PM 68.7°F20.4°C 55.6°F13.1°C 63% Calm Calm 0.7 mph1.1 kmh 29.78 in1008.5 mb 0.00 in0.0 mm 0.00 in0.0 mm 0.02 in0.5 mm
12:52 PM 68.2°F20.1°C 54.7°F12.6°C 62% Calm Calm 0.7 mph1.1 kmh 29.77 in1008.1 mb 0.00 in0.0 mm 0.00 in0.0 mm 0.02 in0.5 mm
12:46 PM 67.6°F19.8°C 54.6°F12.6°C 63% 1.6 mph S2.6 kmh S 3.1 mph5.0 kmh 29.77 in1008.1 mb 0.00 in0.0 mm 0.00 in0.0 mm 0.02 in0.5 mm
12:41 PM 67.6°F19.8°C 54.6°F12.6°C 63% 1.6 mph E2.6 kmh E 2.2 mph3.5 kmh 29.76 in1007.8 mb 0.00 in0.0 mm 0.00 in0.0 mm 0.02 in0.5 mm
12:36 PM 67.5°F19.7°C 54.9°F12.7°C 64% Calm Calm -- 29.78 in1008.5 mb 0.00 in0.0 mm 0.00 in0.0 mm 0.02 in0.5 mm
12:31 PM 66.9°F19.4°C 54.3°F12.4°C 64% 3.1 mph NW5.0 kmh NW 3.8 mph6.1 kmh 29.77 in1008.1 mb 0.00 in0.0 mm 0.00 in0.0 mm 0.02 in0.5 mm
12:26 PM 66.7°F19.3°C 54.2°F12.3°C 64% 3.1 mph NNW5.0 kmh NNW 3.8 mph6.1 kmh 29.77 in1008.1 mb 0.00 in0.0 mm 0.00 in0.0 mm 0.02 in0.5 mm
12:21 PM 66.6°F19.2°C 54.4°F12.4°C 65% 2.2 mph 3.5 kmh 3.1 mph5.0 kmh 29.77 in1008.1 mb 0.00 in0.0 mm 0.00 in0.0 mm 0.02 in0.5 mm
12:16 PM 66.6°F19.2°C 54.0°F12.2°C 64% 1.6 mph 2.6 kmh 3.1 mph5.0 kmh 29.78 in1008.5 mb 0.00 in0.0 mm 0.00 in0.0 mm 0.02 in0.5 mm
12:11 PM 66.6°F19.2°C 54.4°F12.4°C 65% 2.2 mph 3.5 kmh 3.1 mph5.0 kmh 29.78 in1008.5 mb 0.00 in0.0 mm 0.00 in0.0 mm 0.02 in0.5 mm
12:06 PM 66.7°F19.3°C 54.6°F12.6°C 65% 3.1 mph 5.0 kmh 4.5 mph7.2 kmh 29.78 in1008.5 mb 0.00 in0.0 mm 0.00 in0.0 mm 0.02 in0.5 mm
12:01 PM 66.6°F19.2°C 54.0°F12.2°C 64% 1.6 mph NE2.6 kmh NE 3.1 mph5.0 kmh 29.78 in1008.5 mb 0.00 in0.0 mm 0.00 in0.0 mm 0.02 in0.5 mm
11:56 AM 67.8°F19.9°C 54.8°F12.7°C 63% 1.6 mph E2.6 kmh E 2.2 mph3.5 kmh 29.79 in1008.8 mb 0.00 in0.0 mm 0.00 in0.0 mm 0.02 in0.5 mm
11:51 AM 68.2°F20.1°C 54.7°F12.6°C 62% 1.6 mph 2.6 kmh 3.1 mph5.0 kmh 29.79 in1008.8 mb 0.00 in0.0 mm 0.00 in0.0 mm 0.02 in0.5 mm
11:46 AM 68.4°F20.2°C 55.3°F12.9°C 63% 0.7 mph E1.1 kmh E 1.6 mph2.6 kmh 29.78 in1008.5 mb 0.00 in0.0 mm 0.00 in0.0 mm 0.02 in0.5 mm
11:41 AM 68.2°F20.1°C 54.7°F12.6°C 62% 2.2 mph NE3.5 kmh NE 3.1 mph5.0 kmh 29.79 in1008.8 mb 0.00 in0.0 mm 0.00 in0.0 mm 0.02 in0.5 mm
11:36 AM 67.6°F19.8°C 55.0°F12.8°C 64% 2.2 mph NE3.5 kmh NE 3.1 mph5.0 kmh 29.79 in1008.8 mb 0.00 in0.0 mm 0.00 in0.0 mm 0.02 in0.5 mm
11:31 AM 66.9°F19.4°C 56.0°F13.3°C 68% 1.6 mph NE2.6 kmh NE 2.2 mph3.5 kmh 29.79 in1008.8 mb 0.00 in0.0 mm 0.00 in0.0 mm 0.02 in0.5 mm
11:26 AM 65.7°F18.7°C 55.6°F13.1°C 70% 0.7 mph E1.1 kmh E 1.6 mph2.6 kmh 29.79 in1008.8 mb 0.00 in0.0 mm 0.00 in0.0 mm 0.02 in0.5 mm
11:21 AM 64.8°F18.2°C 55.1°F12.8°C 71% 2.2 mph NE3.5 kmh NE 3.1 mph5.0 kmh 29.79 in1008.8 mb 0.00 in0.0 mm 0.00 in0.0 mm 0.02 in0.5 mm
11:17 AM 64.9°F18.3°C 54.1°F12.3°C 68% 3.1 mph NE5.0 kmh NE 3.8 mph6.1 kmh 29.79 in1008.8 mb 0.00 in0.0 mm 0.00 in0.0 mm 0.02 in0.5 mm
11:11 AM 64.9°F18.3°C 54.9°F12.7°C 70% 2.2 mph NE3.5 kmh NE 3.1 mph5.0 kmh 29.79 in1008.8 mb 0.00 in0.0 mm 0.00 in0.0 mm 0.02 in0.5 mm
11:06 AM 64.4°F18.0°C 54.8°F12.7°C 71% 3.1 mph NNE5.0 kmh NNE 3.8 mph6.1 kmh 29.80 in1009.1 mb 0.00 in0.0 mm 0.00 in0.0 mm 0.02 in0.5 mm
11:01 AM 64.4°F18.0°C 54.8°F12.7°C 71% 3.1 mph NNE5.0 kmh NNE 3.8 mph6.1 kmh 29.79 in1008.8 mb 0.00 in0.0 mm 0.00 in0.0 mm 0.02 in0.5 mm
10:56 AM 64.4°F18.0°C 54.8°F12.7°C 71% 3.1 mph 5.0 kmh 3.8 mph6.1 kmh 29.79 in1008.8 mb 0.00 in0.0 mm 0.00 in0.0 mm 0.02 in0.5 mm
10:51 AM 64.0°F17.8°C 54.4°F12.4°C 71% 2.2 mph NE3.5 kmh NE 3.1 mph5.0 kmh 29.79 in1008.8 mb 0.00 in0.0 mm 0.00 in0.0 mm 0.02 in0.5 mm
10:46 AM 63.5°F17.5°C 53.9°F12.2°C 71% 3.1 mph 5.0 kmh 3.8 mph6.1 kmh 29.79 in1008.8 mb 0.00 in0.0 mm 0.00 in0.0 mm 0.02 in0.5 mm
10:41 AM 63.0°F17.2°C 53.4°F11.9°C 71% 3.1 mph 5.0 kmh 3.8 mph6.1 kmh 29.80 in1009.1 mb 0.00 in0.0 mm 0.00 in0.0 mm 0.02 in0.5 mm
10:36 AM 63.3°F17.4°C 53.4°F11.9°C 70% 3.1 mph 5.0 kmh 3.8 mph6.1 kmh 29.80 in1009.1 mb 0.00 in0.0 mm 0.00 in0.0 mm 0.02 in0.5 mm
10:31 AM 63.5°F17.5°C 53.9°F12.2°C 71% 3.8 mph NE6.1 kmh NE 4.5 mph7.2 kmh 29.80 in1009.1 mb 0.00 in0.0 mm 0.00 in0.0 mm 0.02 in0.5 mm
10:26 AM 63.3°F17.4°C 53.4°F11.9°C 70% 2.2 mph NNE3.5 kmh NNE 3.1 mph5.0 kmh 29.80 in1009.1 mb 0.00 in0.0 mm 0.00 in0.0 mm 0.02 in0.5 mm
10:21 AM 63.1°F17.3°C 53.6°F12.0°C 71% 3.1 mph 5.0 kmh 3.8 mph6.1 kmh 29.80 in1009.1 mb 0.00 in0.0 mm 0.00 in0.0 mm 0.02 in0.5 mm
10:16 AM 63.5°F17.5°C 53.5°F11.9°C 70% 3.1 mph 5.0 kmh 3.8 mph6.1 kmh 29.80 in1009.1 mb 0.00 in0.0 mm 0.00 in0.0 mm 0.02 in0.5 mm
10:11 AM 63.5°F17.5°C 53.5°F11.9°C 70% 2.2 mph NE3.5 kmh NE 3.1 mph5.0 kmh 29.80 in1009.1 mb 0.00 in0.0 mm 0.00 in0.0 mm 0.02 in0.5 mm
10:06 AM 63.3°F17.4°C 53.4°F11.9°C 70% 3.1 mph NNE5.0 kmh NNE 3.8 mph6.1 kmh 29.80 in1009.1 mb 0.02 in0.5 mm 0.00 in0.0 mm 0.02 in0.5 mm
10:01 AM 63.0°F17.2°C 53.4°F11.9°C 71% 1.6 mph NE2.6 kmh NE 2.2 mph3.5 kmh 29.80 in1009.1 mb 0.02 in0.5 mm 0.00 in0.0 mm 0.02 in0.5 mm
09:56 AM 62.2°F16.8°C 53.1°F11.7°C 72% 3.1 mph NE5.0 kmh NE 3.8 mph6.1 kmh 29.80 in1009.1 mb 0.02 in0.5 mm 0.00 in0.0 mm 0.02 in0.5 mm
09:51 AM 62.4°F16.9°C 54.0°F12.2°C 74% 2.2 mph NE3.5 kmh NE 3.1 mph5.0 kmh 29.80 in1009.1 mb 0.02 in0.5 mm 0.00 in0.0 mm 0.02 in0.5 mm
09:46 AM 62.2°F16.8°C 54.9°F12.7°C 77% 1.6 mph NE2.6 kmh NE 2.2 mph3.5 kmh 29.80 in1009.1 mb 0.02 in0.5 mm 0.00 in0.0 mm 0.02 in0.5 mm
09:41 AM 61.5°F16.4°C 54.9°F12.7°C 79% 1.6 mph E2.6 kmh E 2.2 mph3.5 kmh 29.80 in1009.1 mb 0.02 in0.5 mm 0.00 in0.0 mm 0.02 in0.5 mm
09:36 AM 60.3°F15.7°C 54.1°F12.3°C 80% 0.7 mph E1.1 kmh E 1.6 mph2.6 kmh 29.81 in1009.5 mb 0.02 in0.5 mm 0.00 in0.0 mm 0.02 in0.5 mm
09:31 AM 60.3°F15.7°C 54.4°F12.4°C 81% 0.7 mph E1.1 kmh E 1.6 mph2.6 kmh 29.81 in1009.5 mb 0.02 in0.5 mm 0.00 in0.0 mm 0.02 in0.5 mm
09:26 AM 60.1°F15.6°C 54.2°F12.3°C 81% 1.6 mph E2.6 kmh E 3.1 mph5.0 kmh 29.80 in1009.1 mb 0.02 in0.5 mm 0.00 in0.0 mm 0.02 in0.5 mm
09:21 AM 60.1°F15.6°C 54.2°F12.3°C 81% 2.2 mph E3.5 kmh E 3.1 mph5.0 kmh 29.80 in1009.1 mb 0.02 in0.5 mm 0.00 in0.0 mm 0.02 in0.5 mm
09:16 AM 59.5°F15.3°C 54.4°F12.4°C 83% 2.2 mph E3.5 kmh E 3.1 mph5.0 kmh 29.80 in1009.1 mb 0.02 in0.5 mm 0.00 in0.0 mm 0.02 in0.5 mm
09:11 AM 59.2°F15.1°C 54.4°F12.4°C 84% 2.2 mph E3.5 kmh E 3.1 mph5.0 kmh 29.80 in1009.1 mb 0.02 in0.5 mm 0.28 in7.1 mm 0.02 in0.5 mm
09:06 AM 58.8°F14.9°C 55.0°F12.8°C 87% 2.2 mph E3.5 kmh E 3.1 mph5.0 kmh 29.80 in1009.1 mb 0.00 in0.0 mm 0.00 in0.0 mm 0.00 in0.0 mm
09:01 AM 58.8°F14.9°C 55.0°F12.8°C 87% 2.2 mph E3.5 kmh E 3.1 mph5.0 kmh 29.80 in1009.1 mb 0.00 in0.0 mm 0.00 in0.0 mm 0.00 in0.0 mm
08:56 AM 59.0°F15.0°C 55.1°F12.8°C 87% 1.6 mph E2.6 kmh E 2.2 mph3.5 kmh 29.80 in1009.1 mb 0.00 in0.0 mm 0.00 in0.0 mm 0.00 in0.0 mm
08:51 AM 58.6°F14.8°C 55.1°F12.8°C 88% 1.6 mph E2.6 kmh E 2.2 mph3.5 kmh 29.80 in1009.1 mb 0.00 in0.0 mm 0.00 in0.0 mm 0.00 in0.0 mm
08:46 AM 58.1°F14.5°C 54.6°F12.6°C 88% 1.6 mph NE2.6 kmh NE 2.2 mph3.5 kmh 29.79 in1008.8 mb 0.00 in0.0 mm 0.00 in0.0 mm 0.00 in0.0 mm
08:41 AM 57.6°F14.2°C 54.0°F12.2°C 88% 3.8 mph E6.1 kmh E 4.5 mph7.2 kmh 29.79 in1008.8 mb 0.00 in0.0 mm 0.00 in0.0 mm 0.00 in0.0 mm
08:36 AM 57.4°F14.1°C 53.9°F12.2°C 88% 5.4 mph E8.7 kmh E 6.0 mph9.7 kmh 29.79 in1008.8 mb 0.00 in0.0 mm 0.00 in0.0 mm 0.00 in0.0 mm
08:31 AM 57.4°F14.1°C 53.9°F12.2°C 88% 8.3 mph E13.4 kmh E 9.2 mph14.8 kmh 29.79 in1008.8 mb 0.00 in0.0 mm 0.00 in0.0 mm 0.00 in0.0 mm
08:26 AM 57.4°F14.1°C 53.9°F12.2°C 88% 6.9 mph E11.1 kmh E 8.3 mph13.4 kmh 29.79 in1008.8 mb 0.00 in0.0 mm 0.00 in0.0 mm 0.00 in0.0 mm
08:21 AM 57.4°F14.1°C 54.2°F12.3°C 89% 7.6 mph E12.2 kmh E 9.2 mph14.8 kmh 29.79 in1008.8 mb 0.00 in0.0 mm 0.00 in0.0 mm 0.00 in0.0 mm
08:16 AM 57.4°F14.1°C 54.2°F12.3°C 89% 6.0 mph E9.7 kmh E 6.9 mph11.1 kmh 29.79 in1008.8 mb 0.00 in0.0 mm 0.00 in0.0 mm 0.00 in0.0 mm
08:11 AM 57.4°F14.1°C 54.5°F12.5°C 90% 6.0 mph ENE9.7 kmh ENE 6.9 mph11.1 kmh 29.78 in1008.5 mb 0.00 in0.0 mm 0.00 in0.0 mm 0.00 in0.0 mm
08:06 AM 57.2°F14.0°C 54.3°F12.4°C 90% 7.6 mph E12.2 kmh E 9.2 mph14.8 kmh 29.78 in1008.5 mb 0.00 in0.0 mm 0.00 in0.0 mm 0.00 in0.0 mm
08:01 AM 57.2°F14.0°C 54.6°F12.6°C 91% 6.9 mph E11.1 kmh E 7.6 mph12.2 kmh 29.79 in1008.8 mb 0.00 in0.0 mm 0.00 in0.0 mm 0.00 in0.0 mm
07:56 AM 57.2°F14.0°C 54.9°F12.7°C 92% 6.0 mph E9.7 kmh E 7.6 mph12.2 kmh 29.78 in1008.5 mb 0.00 in0.0 mm 0.00 in0.0 mm 0.00 in0.0 mm
07:51 AM 57.2°F14.0°C 54.9°F12.7°C 92% 6.0 mph E9.7 kmh E 6.9 mph11.1 kmh 29.78 in1008.5 mb 0.00 in0.0 mm 0.00 in0.0 mm 0.00 in0.0 mm
07:46 AM 57.0°F13.9°C 55.0°F12.8°C 93% 6.0 mph E9.7 kmh E 6.9 mph11.1 kmh 29.78 in1008.5 mb 0.00 in0.0 mm 0.00 in0.0 mm 0.00 in0.0 mm
07:41 AM 56.8°F13.8°C 54.8°F12.7°C 93% 6.9 mph E11.1 kmh E 8.3 mph13.4 kmh 29.78 in1008.5 mb 0.00 in0.0 mm 0.00 in0.0 mm 0.00 in0.0 mm
07:36 AM 56.8°F13.8°C 55.1°F12.8°C 94% 7.6 mph E12.2 kmh E 8.3 mph13.4 kmh 29.78 in1008.5 mb 0.00 in0.0 mm 0.00 in0.0 mm 0.00 in0.0 mm
07:31 AM 56.8°F13.8°C 55.1°F12.8°C 94% 6.9 mph E11.1 kmh E 7.6 mph12.2 kmh 29.78 in1008.5 mb 0.00 in0.0 mm 0.00 in0.0 mm 0.00 in0.0 mm
07:26 AM 56.8°F13.8°C 55.1°F12.8°C 94% 6.9 mph E11.1 kmh E 7.6 mph12.2 kmh 29.77 in1008.1 mb 0.00 in0.0 mm 0.00 in0.0 mm 0.00 in0.0 mm
07:21 AM 56.8°F13.8°C 55.1°F12.8°C 94% 5.4 mph E8.7 kmh E 6.0 mph9.7 kmh 29.78 in1008.5 mb 0.00 in0.0 mm 0.00 in0.0 mm 0.00 in0.0 mm
07:16 AM 56.8°F13.8°C 55.1°F12.8°C 94% 6.0 mph E9.7 kmh E 6.9 mph11.1 kmh 29.78 in1008.5 mb 0.00 in0.0 mm 0.00 in0.0 mm 0.00 in0.0 mm
07:11 AM 56.8°F13.8°C 55.4°F13.0°C 95% 4.5 mph E7.2 kmh E 5.4 mph8.7 kmh 29.77 in1008.1 mb 0.00 in0.0 mm 0.00 in0.0 mm 0.00 in0.0 mm
07:06 AM 56.8°F13.8°C 55.4°F13.0°C 95% 6.0 mph E9.7 kmh E 6.9 mph11.1 kmh 29.77 in1008.1 mb 0.00 in0.0 mm 0.00 in0.0 mm 0.00 in0.0 mm
07:01 AM 56.8°F13.8°C 55.4°F13.0°C 95% 6.0 mph E9.7 kmh E 6.9 mph11.1 kmh 29.77 in1008.1 mb 0.00 in0.0 mm 0.00 in0.0 mm 0.00 in0.0 mm
06:56 AM 56.8°F13.8°C 55.4°F13.0°C 95% 2.2 mph E3.5 kmh E 3.8 mph6.1 kmh 29.78 in1008.5 mb 0.00 in0.0 mm 0.00 in0.0 mm 0.00 in0.0 mm
06:51 AM 56.8°F13.8°C 55.4°F13.0°C 95% 3.8 mph E6.1 kmh E 5.4 mph8.7 kmh 29.77 in1008.1 mb 0.00 in0.0 mm 0.00 in0.0 mm 0.00 in0.0 mm
06:46 AM 56.7°F13.7°C 55.2°F12.9°C 95% 5.4 mph E8.7 kmh E 6.9 mph11.1 kmh 29.77 in1008.1 mb 0.00 in0.0 mm 0.00 in0.0 mm 0.00 in0.0 mm
06:41 AM 56.5°F13.6°C 55.1°F12.8°C 95% 6.0 mph E9.7 kmh E 6.9 mph11.1 kmh 29.77 in1008.1 mb 0.00 in0.0 mm 0.00 in0.0 mm 0.00 in0.0 mm
06:36 AM 56.5°F13.6°C 55.1°F12.8°C 95% 5.4 mph E8.7 kmh E 6.9 mph11.1 kmh 29.77 in1008.1 mb 0.00 in0.0 mm 0.00 in0.0 mm 0.00 in0.0 mm
06:31 AM 56.5°F13.6°C 55.1°F12.8°C 95% 5.4 mph E8.7 kmh E 6.0 mph9.7 kmh 29.78 in1008.5 mb 0.00 in0.0 mm 0.00 in0.0 mm 0.00 in0.0 mm
06:26 AM 56.5°F13.6°C 55.1°F12.8°C 95% 4.5 mph E7.2 kmh E 6.9 mph11.1 kmh 29.77 in1008.1 mb 0.00 in0.0 mm 0.00 in0.0 mm 0.00 in0.0 mm
06:21 AM 56.5°F13.6°C 54.8°F12.7°C 94% 3.8 mph E6.1 kmh E 5.4 mph8.7 kmh 29.78 in1008.5 mb 0.00 in0.0 mm 0.00 in0.0 mm 0.00 in0.0 mm
06:16 AM 56.5°F13.6°C 54.8°F12.7°C 94% 3.1 mph E5.0 kmh E 3.8 mph6.1 kmh 29.77 in1008.1 mb 0.00 in0.0 mm 0.00 in0.0 mm 0.00 in0.0 mm
06:10 AM 56.5°F13.6°C 54.8°F12.7°C 94% 3.1 mph E5.0 kmh E 3.8 mph6.1 kmh 29.77 in1008.1 mb 0.00 in0.0 mm 0.00 in0.0 mm 0.00 in0.0 mm
06:06 AM 56.5°F13.6°C 54.8°F12.7°C 94% 3.8 mph ENE6.1 kmh ENE 4.5 mph7.2 kmh 29.77 in1008.1 mb 0.00 in0.0 mm 0.00 in0.0 mm 0.00 in0.0 mm
06:00 AM 56.5°F13.6°C 54.8°F12.7°C 94% 3.1 mph E5.0 kmh E 3.8 mph6.1 kmh 29.77 in1008.1 mb 0.00 in0.0 mm 0.00 in0.0 mm 0.00 in0.0 mm
05:55 AM 56.5°F13.6°C 54.8°F12.7°C 94% 1.6 mph E2.6 kmh E 2.2 mph3.5 kmh 29.77 in1008.1 mb 0.00 in0.0 mm 0.00 in0.0 mm 0.00 in0.0 mm
05:50 AM 56.3°F13.5°C 54.6°F12.6°C 94% 1.6 mph E2.6 kmh E 2.2 mph3.5 kmh 29.77 in1008.1 mb 0.00 in0.0 mm 0.00 in0.0 mm 0.00 in0.0 mm
05:45 AM 56.3°F13.5°C 54.6°F12.6°C 94% Calm Calm -- 29.77 in1008.1 mb 0.00 in0.0 mm 0.00 in0.0 mm 0.00 in0.0 mm
05:40 AM 56.3°F13.5°C 54.6°F12.6°C 94% Calm Calm -- 29.77 in1008.1 mb 0.00 in0.0 mm 0.00 in0.0 mm 0.00 in0.0 mm
05:30 AM 56.3°F13.5°C 54.6°F12.6°C 94% Calm Calm -- 29.77 in1008.1 mb 0.00 in0.0 mm 0.00 in0.0 mm 0.00 in0.0 mm
05:25 AM 56.3°F13.5°C 54.6°F12.6°C 94% Calm Calm -- 29.77 in1008.1 mb 0.00 in0.0 mm 0.00 in0.0 mm 0.00 in0.0 mm
05:20 AM 56.5°F13.6°C 54.8°F12.7°C 94% 0.7 mph 1.1 kmh 1.6 mph2.6 kmh 29.77 in1008.1 mb 0.00 in0.0 mm 0.00 in0.0 mm 0.00 in0.0 mm
05:15 AM 56.5°F13.6°C 54.8°F12.7°C 94% 1.6 mph 2.6 kmh 2.2 mph3.5 kmh 29.77 in1008.1 mb 0.00 in0.0 mm 0.00 in0.0 mm 0.00 in0.0 mm
05:10 AM 56.3°F13.5°C 54.6°F12.6°C 94% Calm Calm -- 29.76 in1007.8 mb 0.00 in0.0 mm 0.00 in0.0 mm 0.00 in0.0 mm
05:05 AM 56.1°F13.4°C 54.4°F12.4°C 94% Calm Calm -- 29.76 in1007.8 mb 0.00 in0.0 mm 0.00 in0.0 mm 0.00 in0.0 mm
05:00 AM 56.1°F13.4°C 54.4°F12.4°C 94% Calm Calm -- 29.76 in1007.8 mb 0.00 in0.0 mm 0.00 in0.0 mm 0.00 in0.0 mm
04:55 AM 56.1°F13.4°C 54.4°F12.4°C 94% Calm Calm -- 29.76 in1007.8 mb 0.00 in0.0 mm 0.00 in0.0 mm 0.00 in0.0 mm
04:50 AM 56.1°F13.4°C 54.4°F12.4°C 94% Calm Calm -- 29.76 in1007.8 mb 0.00 in0.0 mm 0.00 in0.0 mm 0.00 in0.0 mm
04:45 AM 56.1°F13.4°C 54.4°F12.4°C 94% Calm Calm 0.7 mph1.1 kmh 29.76 in1007.8 mb 0.00 in0.0 mm 0.00 in0.0 mm 0.00 in0.0 mm
04:40 AM 56.1°F13.4°C 54.4°F12.4°C 94% 0.7 mph E1.1 kmh E 1.6 mph2.6 kmh 29.76 in1007.8 mb 0.00 in0.0 mm 0.00 in0.0 mm 0.00 in0.0 mm
04:35 AM 55.9°F13.3°C 54.2°F12.3°C 94% Calm Calm 1.6 mph2.6 kmh 29.76 in1007.8 mb 0.00 in0.0 mm 0.00 in0.0 mm 0.00 in0.0 mm
04:30 AM 55.9°F13.3°C 54.2°F12.3°C 94% 0.7 mph SE1.1 kmh SE 1.6 mph2.6 kmh 29.76 in1007.8 mb 0.00 in0.0 mm 0.00 in0.0 mm 0.00 in0.0 mm
04:25 AM 56.1°F13.4°C 54.4°F12.4°C 94% Calm Calm 0.7 mph1.1 kmh 29.75 in1007.5 mb 0.00 in0.0 mm 0.00 in0.0 mm 0.00 in0.0 mm
04:20 AM 56.1°F13.4°C 54.4°F12.4°C 94% Calm Calm -- 29.76 in1007.8 mb 0.00 in0.0 mm 0.00 in0.0 mm 0.00 in0.0 mm
04:15 AM 55.9°F13.3°C 54.2°F12.3°C 94% 1.6 mph SE2.6 kmh SE 1.6 mph2.6 kmh 29.75 in1007.5 mb 0.00 in0.0 mm 0.00 in0.0 mm 0.00 in0.0 mm
04:10 AM 55.9°F13.3°C 54.2°F12.3°C 94% Calm Calm 0.7 mph1.1 kmh 29.75 in1007.5 mb 0.00 in0.0 mm 0.00 in0.0 mm 0.00 in0.0 mm
04:05 AM 55.9°F13.3°C 54.2°F12.3°C 94% Calm Calm -- 29.75 in1007.5 mb 0.00 in0.0 mm 0.00 in0.0 mm 0.00 in0.0 mm
04:00 AM 56.1°F13.4°C 54.4°F12.4°C 94% Calm Calm -- 29.76 in1007.8 mb 0.00 in0.0 mm 0.00 in0.0 mm 0.00 in0.0 mm
03:55 AM 56.5°F13.6°C 54.8°F12.7°C 94% Calm Calm -- 29.76 in1007.8 mb 0.00 in0.0 mm 0.00 in0.0 mm 0.00 in0.0 mm
03:50 AM 56.5°F13.6°C 54.8°F12.7°C 94% Calm Calm -- 29.75 in1007.5 mb 0.00 in0.0 mm 0.00 in0.0 mm 0.00 in0.0 mm
03:45 AM 56.7°F13.7°C 55.0°F12.8°C 94% Calm Calm 0.7 mph1.1 kmh 29.75 in1007.5 mb 0.00 in0.0 mm 0.00 in0.0 mm 0.00 in0.0 mm
03:40 AM 56.5°F13.6°C 54.8°F12.7°C 94% 1.6 mph E2.6 kmh E 2.2 mph3.5 kmh 29.75 in1007.5 mb 0.00 in0.0 mm 0.00 in0.0 mm 0.00 in0.0 mm
03:35 AM 56.5°F13.6°C 54.8°F12.7°C 94% 0.7 mph ESE1.1 kmh ESE 1.6 mph2.6 kmh 29.75 in1007.5 mb 0.00 in0.0 mm 0.00 in0.0 mm 0.00 in0.0 mm
03:30 AM 56.5°F13.6°C 54.8°F12.7°C 94% 1.6 mph SE2.6 kmh SE 2.2 mph3.5 kmh 29.75 in1007.5 mb 0.00 in0.0 mm 0.00 in0.0 mm 0.00 in0.0 mm
03:25 AM 56.7°F13.7°C 55.0°F12.8°C 94% 3.8 mph E6.1 kmh E 4.5 mph7.2 kmh 29.75 in1007.5 mb 0.00 in0.0 mm 0.00 in0.0 mm 0.00 in0.0 mm
03:20 AM 56.7°F13.7°C 55.0°F12.8°C 94% 3.1 mph E5.0 kmh E 4.5 mph7.2 kmh 29.76 in1007.8 mb 0.00 in0.0 mm 0.00 in0.0 mm 0.00 in0.0 mm
03:15 AM 56.7°F13.7°C 55.0°F12.8°C 94% 2.2 mph E3.5 kmh E 3.8 mph6.1 kmh 29.75 in1007.5 mb 0.00 in0.0 mm 0.00 in0.0 mm 0.00 in0.0 mm
03:10 AM 56.8°F13.8°C 55.1°F12.8°C 94% 2.2 mph E3.5 kmh E 3.1 mph5.0 kmh 29.76 in1007.8 mb 0.00 in0.0 mm 0.00 in0.0 mm 0.00 in0.0 mm
03:05 AM 57.0°F13.9°C 55.3°F12.9°C 94% 3.1 mph E5.0 kmh E 3.8 mph6.1 kmh 29.75 in1007.5 mb 0.00 in0.0 mm 0.00 in0.0 mm 0.00 in0.0 mm
03:00 AM 57.0°F13.9°C 55.3°F12.9°C 94% 3.1 mph E5.0 kmh E 3.8 mph6.1 kmh 29.75 in1007.5 mb 0.00 in0.0 mm 0.00 in0.0 mm 0.00 in0.0 mm
02:55 AM 57.0°F13.9°C 55.3°F12.9°C 94% 2.2 mph E3.5 kmh E 3.1 mph5.0 kmh 29.75 in1007.5 mb 0.00 in0.0 mm 0.00 in0.0 mm 0.00 in0.0 mm
02:50 AM 57.0°F13.9°C 55.3°F12.9°C 94% 4.5 mph E7.2 kmh E 6.0 mph9.7 kmh 29.76 in1007.8 mb 0.00 in0.0 mm 0.00 in0.0 mm 0.00 in0.0 mm
02:45 AM 57.0°F13.9°C 55.3°F12.9°C 94% 2.2 mph NE3.5 kmh NE 3.8 mph6.1 kmh 29.76 in1007.8 mb 0.00 in0.0 mm 0.00 in0.0 mm 0.00 in0.0 mm
02:40 AM 56.8°F13.8°C 55.1°F12.8°C 94% 0.7 mph W1.1 kmh W 1.6 mph2.6 kmh 29.75 in1007.5 mb 0.00 in0.0 mm 0.00 in0.0 mm 0.00 in0.0 mm
02:35 AM 56.8°F13.8°C 55.1°F12.8°C 94% Calm Calm 0.7 mph1.1 kmh 29.75 in1007.5 mb 0.00 in0.0 mm 0.00 in0.0 mm 0.00 in0.0 mm
02:30 AM 56.8°F13.8°C 55.1°F12.8°C 94% Calm Calm -- 29.75 in1007.5 mb 0.00 in0.0 mm 0.00 in0.0 mm 0.00 in0.0 mm
02:25 AM 57.0°F13.9°C 55.3°F12.9°C 94% 0.7 mph S1.1 kmh S 1.6 mph2.6 kmh 29.75 in1007.5 mb 0.00 in0.0 mm 0.00 in0.0 mm 0.00 in0.0 mm
02:20 AM 57.0°F13.9°C 55.0°F12.8°C 93% 2.2 mph E3.5 kmh E 3.8 mph6.1 kmh 29.76 in1007.8 mb 0.00 in0.0 mm 0.00 in0.0 mm 0.00 in0.0 mm
02:15 AM 57.0°F13.9°C 55.0°F12.8°C 93% 1.6 mph E2.6 kmh E 2.2 mph3.5 kmh 29.76 in1007.8 mb 0.00 in0.0 mm 0.00 in0.0 mm 0.00 in0.0 mm
02:10 AM 57.0°F13.9°C 55.0°F12.8°C 93% 1.6 mph SE2.6 kmh SE 2.2 mph3.5 kmh 29.75 in1007.5 mb 0.00 in0.0 mm 0.00 in0.0 mm 0.00 in0.0 mm
02:05 AM 57.0°F13.9°C 55.0°F12.8°C 93% 1.6 mph E2.6 kmh E 3.1 mph5.0 kmh 29.76 in1007.8 mb 0.00 in0.0 mm 0.00 in0.0 mm 0.00 in0.0 mm
02:00 AM 57.2°F14.0°C 54.9°F12.7°C 92% 1.6 mph SE2.6 kmh SE 2.2 mph3.5 kmh 29.76 in1007.8 mb 0.00 in0.0 mm 0.00 in0.0 mm 0.00 in0.0 mm
01:55 AM 57.2°F14.0°C 54.9°F12.7°C 92% 2.2 mph E3.5 kmh E 3.8 mph6.1 kmh 29.76 in1007.8 mb 0.00 in0.0 mm 0.00 in0.0 mm 0.00 in0.0 mm
01:50 AM 57.2°F14.0°C 54.9°F12.7°C 92% 1.6 mph E2.6 kmh E 3.8 mph6.1 kmh 29.75 in1007.5 mb 0.00 in0.0 mm 0.00 in0.0 mm 0.00 in0.0 mm
01:45 AM 57.2°F14.0°C 54.9°F12.7°C 92% 1.6 mph SE2.6 kmh SE 2.2 mph3.5 kmh 29.76 in1007.8 mb 0.00 in0.0 mm 0.00 in0.0 mm 0.00 in0.0 mm
01:40 AM 57.0°F13.9°C 55.0°F12.8°C 93% 1.6 mph SE2.6 kmh SE 2.2 mph3.5 kmh 29.76 in1007.8 mb 0.00 in0.0 mm 0.00 in0.0 mm 0.00 in0.0 mm
01:35 AM 57.2°F14.0°C 54.9°F12.7°C 92% 0.7 mph SE1.1 kmh SE 2.2 mph3.5 kmh 29.76 in1007.8 mb 0.00 in0.0 mm 0.00 in0.0 mm 0.00 in0.0 mm
01:30 AM 57.4°F14.1°C 55.1°F12.8°C 92% 2.2 mph SE3.5 kmh SE 4.5 mph7.2 kmh 29.76 in1007.8 mb 0.00 in0.0 mm 0.00 in0.0 mm 0.00 in0.0 mm
01:25 AM 57.6°F14.2°C 55.3°F12.9°C 92% 3.1 mph E5.0 kmh E 3.8 mph6.1 kmh 29.76 in1007.8 mb 0.00 in0.0 mm 0.00 in0.0 mm 0.00 in0.0 mm
01:20 AM 57.2°F14.0°C 54.9°F12.7°C 92% 2.2 mph E3.5 kmh E 3.8 mph6.1 kmh 29.76 in1007.8 mb 0.00 in0.0 mm 0.00 in0.0 mm 0.00 in0.0 mm
01:15 AM 57.2°F14.0°C 54.9°F12.7°C 92% 3.8 mph E6.1 kmh E 4.5 mph7.2 kmh 29.76 in1007.8 mb 0.00 in0.0 mm 0.00 in0.0 mm 0.00 in0.0 mm
01:10 AM 57.4°F14.1°C 55.1°F12.8°C 92% 3.1 mph E5.0 kmh E 3.8 mph6.1 kmh 29.75 in1007.5 mb 0.00 in0.0 mm 0.00 in0.0 mm 0.00 in0.0 mm
01:05 AM 57.4°F14.1°C 55.4°F13.0°C 93% 3.1 mph E5.0 kmh E 4.5 mph7.2 kmh 29.76 in1007.8 mb 0.00 in0.0 mm 0.00 in0.0 mm 0.00 in0.0 mm
01:00 AM 57.4°F14.1°C 55.4°F13.0°C 93% 3.1 mph E5.0 kmh E 4.5 mph7.2 kmh 29.76 in1007.8 mb 0.00 in0.0 mm 0.00 in0.0 mm 0.00 in0.0 mm
12:55 AM 57.2°F14.0°C 55.2°F12.9°C 93% 5.4 mph SE8.7 kmh SE 6.0 mph9.7 kmh 29.76 in1007.8 mb 0.00 in0.0 mm 0.00 in0.0 mm 0.00 in0.0 mm
12:50 AM 57.2°F14.0°C 55.2°F12.9°C 93% 3.8 mph ESE6.1 kmh ESE 4.5 mph7.2 kmh 29.76 in1007.8 mb 0.00 in0.0 mm 0.00 in0.0 mm 0.00 in0.0 mm
12:45 AM 57.2°F14.0°C 55.2°F12.9°C 93% 3.8 mph E6.1 kmh E 5.4 mph8.7 kmh 29.76 in1007.8 mb 0.00 in0.0 mm 0.00 in0.0 mm 0.00 in0.0 mm
12:40 AM 57.4°F14.1°C 55.4°F13.0°C 93% 3.8 mph E6.1 kmh E 4.5 mph7.2 kmh 29.76 in1007.8 mb 0.00 in0.0 mm 0.00 in0.0 mm 0.00 in0.0 mm
12:35 AM 57.2°F14.0°C 55.2°F12.9°C 93% 3.8 mph E6.1 kmh E 4.5 mph7.2 kmh 29.76 in1007.8 mb 0.00 in0.0 mm 0.00 in0.0 mm 0.00 in0.0 mm
12:30 AM 57.2°F14.0°C 55.2°F12.9°C 93% Calm Calm 0.7 mph1.1 kmh 29.77 in1008.1 mb 0.00 in0.0 mm 0.00 in0.0 mm 0.00 in0.0 mm
12:25 AM 57.4°F14.1°C 55.4°F13.0°C 93% 3.8 mph SE6.1 kmh SE 4.5 mph7.2 kmh 29.76 in1007.8 mb 0.00 in0.0 mm 0.00 in0.0 mm 0.00 in0.0 mm
12:20 AM 57.4°F14.1°C 55.4°F13.0°C 93% 2.2 mph E3.5 kmh E 3.8 mph6.1 kmh 29.76 in1007.8 mb 0.00 in0.0 mm 0.00 in0.0 mm 0.00 in0.0 mm
12:15 AM 57.4°F14.1°C 55.4°F13.0°C 93% 3.1 mph E5.0 kmh E 3.8 mph6.1 kmh 29.76 in1007.8 mb 0.00 in0.0 mm 0.00 in0.0 mm 0.00 in0.0 mm
12:10 AM 57.4°F14.1°C 55.4°F13.0°C 93% 3.1 mph SE5.0 kmh SE 4.5 mph7.2 kmh 29.76 in1007.8 mb 0.00 in0.0 mm 0.00 in0.0 mm 0.00 in0.0 mm
12:05 AM 57.4°F14.1°C 55.7°F13.2°C 94% 4.5 mph ESE7.2 kmh ESE 5.4 mph8.7 kmh 29.76 in1007.8 mb 0.00 in0.0 mm 0.00 in0.0 mm 0.00 in0.0 mm
12:00 AM 57.4°F14.1°C 55.7°F13.2°C 94% Calm Calm 0.7 mph1.1 kmh 29.76 in1007.8 mb 0.00 in0.0 mm 0.00 in0.0 mm 0.00 in0.0 mm